Time;durP1;ratioP1;P1;durP2;ratioP2;P2;SDS_P1;SDS_P2;PMS_P1;PMS_P2;Temp;Humidity;BMP_temperature;BMP_pressure;BME280_temperature;BME280_humidity;BME280_pressure;Samples;Min_cycle;Max_cycle;Signal;HPM_P1;HPM_P2
2023/06/26 00:02:24;;;;;;;8.97;8.17;;;;;;;26.31;36.21;97371.31;5089269;28;20674;-70
2023/06/26 00:04:53;;;;;;;9.37;8.47;;;;;;;26.29;36.49;97375.34;5104728;28;20679;-69
2023/06/26 00:07:21;;;;;;;9.97;8.90;;;;;;;26.24;36.61;97372.56;5071094;28;20655;-69
2023/06/26 00:09:47;;;;;;;10.77;9.67;;;;;;;26.22;36.75;97376.31;5090087;28;20785;-69
2023/06/26 00:12:12;;;;;;;12.53;8.90;;;;;;;26.19;36.65;97376.84;5090469;28;20447;-70
2023/06/26 00:14:38;;;;;;;8.10;7.40;;;;;;;26.18;36.72;97371.69;5098307;28;20672;-69
2023/06/26 00:17:03;;;;;;;9.07;8.17;;;;;;;26.17;36.77;97376.28;5094031;28;20174;-68
2023/06/26 00:19:29;;;;;;;9.50;8.60;;;;;;;26.17;36.98;97380.81;5088655;28;20187;-69
2023/06/26 00:21:54;;;;;;;8.97;8.00;;;;;;;26.18;36.93;97372.53;5096224;28;20268;-69
2023/06/26 00:24:20;;;;;;;9.50;8.60;;;;;;;26.19;36.84;97384.91;5094955;28;20197;-70
2023/06/26 00:26:46;;;;;;;9.03;8.13;;;;;;;26.21;36.97;97380.06;5087788;28;20713;-70
2023/06/26 00:29:12;;;;;;;11.00;9.23;;;;;;;26.21;37.03;97380.06;5087875;28;20734;-69
2023/06/26 00:31:38;;;;;;;12.57;8.20;;;;;;;26.18;37.34;97377.91;5096589;28;20555;-72
2023/06/26 00:34:03;;;;;;;10.73;9.70;;;;;;;26.14;37.32;97375.97;5088516;28;20686;-69
2023/06/26 00:36:29;;;;;;;9.43;8.47;;;;;;;26.06;37.50;97377.97;5088335;28;20184;-71
2023/06/26 00:38:54;;;;;;;9.73;8.80;;;;;;;26.02;37.37;97378.72;5093151;28;20174;-70
2023/06/26 00:41:19;;;;;;;11.20;10.10;;;;;;;26.01;37.50;97374.41;5094601;28;20280;-70
2023/06/26 00:43:45;;;;;;;9.43;8.43;;;;;;;25.99;37.79;97363.94;5070280;28;20197;-69
2023/06/26 00:46:13;;;;;;;9.07;8.20;;;;;;;26.04;37.24;97373.91;5087210;28;20272;-69
2023/06/26 00:48:39;;;;;;;11.07;7.87;;;;;;;26.07;37.11;97371.53;5087600;28;20582;-70
2023/06/26 00:51:05;;;;;;;8.40;7.60;;;;;;;26.09;37.16;97368.59;5088178;28;20490;-68
2023/06/26 00:53:31;;;;;;;9.00;8.10;;;;;;;26.08;37.24;97375.06;5063893;28;20495;-71
2023/06/26 00:55:56;;;;;;;9.57;8.00;;;;;;;26.12;37.25;97373.50;5095910;28;20201;-69
2023/06/26 00:58:24;;;;;;;8.83;7.90;;;;;;;26.14;37.00;97370.59;5087880;28;20511;-70
2023/06/26 01:00:50;;;;;;;9.50;8.60;;;;;;;26.15;36.90;97373.03;5070998;28;20184;-68
2023/06/26 01:03:15;;;;;;;8.23;7.43;;;;;;;26.14;36.70;97376.75;5088008;28;20435;-69
2023/06/26 01:05:41;;;;;;;8.70;7.80;;;;;;;26.05;36.92;97368.28;5087579;28;20451;-69
2023/06/26 01:08:07;;;;;;;8.90;8.07;;;;;;;25.89;37.31;97369.16;5088349;28;20185;-69
2023/06/26 01:10:33;;;;;;;9.73;8.73;;;;;;;25.88;37.41;97362.97;5082471;28;20186;-69
2023/06/26 01:12:58;;;;;;;9.40;8.40;;;;;;;25.94;37.38;97365.75;5061889;28;20420;-69
2023/06/26 01:15:24;;;;;;;10.50;8.20;;;;;;;25.96;37.54;97369.78;5087660;28;20225;-69
2023/06/26 01:17:50;;;;;;;8.37;7.53;;;;;;;25.99;37.33;97363.09;5086977;28;20192;-69
2023/06/26 01:20:16;;;;;;;8.73;7.83;;;;;;;25.91;37.83;97359.81;5069866;28;20181;-70
2023/06/26 01:22:47;;;;;;;8.53;7.20;;;;;;;25.84;37.78;97366.41;5078146;28;20443;-69
2023/06/26 01:25:41;;;;;;;11.30;9.40;;;;;;;25.77;38.08;97362.00;5095512;28;20197;-69
2023/06/26 01:28:07;;;;;;;8.30;7.50;;;;;;;25.74;38.21;97370.56;5059956;28;20431;-69
2023/06/26 01:30:34;;;;;;;10.40;8.80;;;;;;;25.77;37.91;97355.84;5091602;28;20485;-69
2023/06/26 01:33:00;;;;;;;8.70;7.40;;;;;;;25.79;38.00;97351.03;5066458;28;20231;-69
2023/06/26 01:35:26;;;;;;;8.87;7.90;;;;;;;25.84;37.68;97350.28;5092414;28;20431;-70
2023/06/26 01:37:52;;;;;;;9.47;8.50;;;;;;;25.85;37.92;97350.03;5093706;28;20415;-70
2023/06/26 01:40:17;;;;;;;9.23;7.43;;;;;;;25.84;37.87;97348.41;5099602;28;20905;-70
2023/06/26 01:42:43;;;;;;;9.07;7.63;;;;;;;25.84;37.88;97337.69;5096295;28;20227;-71
2023/06/26 01:45:21;;;;;;;12.27;8.50;;;;;;;25.75;38.27;97344.53;5078437;28;20351;-69
2023/06/26 01:47:49;;;;;;;8.33;7.53;;;;;;;25.71;38.20;97351.44;5074904;28;20184;-70
2023/06/26 01:50:19;;;;;;;11.90;7.30;;;;;;;25.57;38.31;97351.81;5073565;28;20415;-69
2023/06/26 01:52:52;;;;;;;11.57;8.03;;;;;;;25.49;38.69;97346.84;5080013;28;20450;-70
2023/06/26 01:55:33;;;;;;;10.10;8.10;;;;;;;25.41;38.88;97344.59;5091680;28;20509;-70
2023/06/26 01:57:58;;;;;;;11.20;8.10;;;;;;;25.38;38.93;97340.50;5072308;28;20435;-70
2023/06/26 02:00:24;;;;;;;10.57;8.80;;;;;;;25.29;38.84;97337.41;5064818;28;20438;-70
2023/06/26 02:02:50;;;;;;;8.73;7.93;;;;;;;25.25;39.13;97336.25;5091182;28;20178;-69
2023/06/26 02:05:15;;;;;;;8.23;7.43;;;;;;;25.21;39.05;97337.81;5091425;28;20834;-69
2023/06/26 02:07:41;;;;;;;9.37;7.70;;;;;;;25.18;39.41;97338.31;5091583;28;20178;-70
2023/06/26 02:10:07;;;;;;;10.80;8.20;;;;;;;25.15;39.41;97338.78;5102116;28;20261;-70
2023/06/26 02:12:33;;;;;;;9.20;8.30;;;;;;;25.12;39.45;97350.00;5087111;28;20250;-70
2023/06/26 02:14:59;;;;;;;10.17;8.20;;;;;;;25.07;39.97;97345.38;5094216;28;21007;-69
2023/06/26 02:17:24;;;;;;;9.07;8.10;;;;;;;25.04;39.71;97342.38;5091078;28;20415;-69
2023/06/26 02:19:49;;;;;;;10.20;8.63;;;;;;;25.00;39.75;97348.19;5099061;28;20188;-69
2023/06/26 02:22:16;;;;;;;10.60;8.00;;;;;;;24.94;39.94;97349.19;5091018;28;20319;-70
2023/06/26 02:24:42;;;;;;;8.77;7.90;;;;;;;24.89;40.15;97346.41;5092010;28;20702;-70
2023/06/26 02:27:08;;;;;;;8.80;7.47;;;;;;;24.87;39.93;97347.72;5088075;28;20415;-68
2023/06/26 02:29:33;;;;;;;8.57;7.73;;;;;;;24.84;40.00;97348.97;5090579;28;20446;-68
2023/06/26 02:31:59;;;;;;;8.90;8.00;;;;;;;24.84;40.01;97348.97;5089663;28;20208;-69
2023/06/26 02:34:24;;;;;;;8.80;7.90;;;;;;;24.78;40.06;97349.97;5090920;28;20720;-69
2023/06/26 02:36:50;;;;;;;8.43;7.63;;;;;;;24.74;40.30;97346.13;5090002;28;20239;-69
2023/06/26 02:39:15;;;;;;;8.53;7.73;;;;;;;24.74;40.54;97348.81;5098557;28;20221;-69
2023/06/26 02:41:41;;;;;;;9.33;8.47;;;;;;;24.74;40.32;97354.16;5099385;28;20196;-68
2023/06/26 02:44:06;;;;;;;9.50;8.50;;;;;;;24.70;40.60;97348.47;5089727;28;20262;-70
2023/06/26 02:46:33;;;;;;;8.40;7.60;;;;;;;24.68;40.47;97356.72;5090341;28;20273;-69
2023/06/26 02:48:59;;;;;;;8.77;7.87;;;;;;;24.68;40.58;97347.88;5077766;28;20217;-69
2023/06/26 02:51:24;;;;;;;8.50;7.60;;;;;;;24.69;40.40;97345.00;5090180;28;21229;-70
2023/06/26 02:53:49;;;;;;;8.03;7.23;;;;;;;24.68;40.48;97342.50;5090351;28;20658;-69
2023/06/26 02:56:15;;;;;;;8.93;7.70;;;;;;;24.65;40.47;97353.69;5090231;28;20660;-69
2023/06/26 02:58:40;;;;;;;9.97;8.10;;;;;;;24.63;40.82;97347.78;5089565;28;20276;-70
2023/06/26 03:01:06;;;;;;;8.90;8.10;;;;;;;24.56;40.66;97347.94;5090506;28;20214;-68
2023/06/26 03:03:40;;;;;;;13.43;7.53;;;;;;;24.56;41.11;97345.25;5098877;28;20193;-69
2023/06/26 03:06:06;;;;;;;8.63;7.80;;;;;;;24.59;41.11;97347.44;5090942;28;20218;-70
2023/06/26 03:08:32;;;;;;;8.90;7.80;;;;;;;24.57;40.69;97351.41;5090218;28;20415;-70
2023/06/26 03:10:57;;;;;;;9.10;8.20;;;;;;;24.57;40.76;97343.38;5084127;28;21034;-72
2023/06/26 03:13:22;;;;;;;8.23;7.43;;;;;;;24.53;40.99;97348.41;5095696;28;20279;-71
2023/06/26 03:15:48;;;;;;;9.83;8.20;;;;;;;24.47;40.76;97344.81;5085543;28;20754;-69
2023/06/26 03:18:14;;;;;;;8.90;8.00;;;;;;;24.49;41.01;97350.75;5088964;28;20556;-69
2023/06/26 03:20:39;;;;;;;8.53;7.73;;;;;;;24.47;40.93;97349.34;5097857;28;20189;-69
2023/06/26 03:23:04;;;;;;;9.70;7.40;;;;;;;24.45;41.28;97348.75;5089132;28;20754;-68
2023/06/26 03:25:30;;;;;;;8.73;7.83;;;;;;;24.43;41.40;97349.00;5103771;28;20299;-68
2023/06/26 03:27:55;;;;;;;8.43;7.53;;;;;;;24.43;41.02;97340.19;5088097;28;20216;-69
2023/06/26 03:30:21;;;;;;;10.63;8.43;;;;;;;24.42;41.25;97342.03;5088592;28;20271;-69
2023/06/26 03:32:46;;;;;;;8.50;7.40;;;;;;;24.41;41.06;97351.13;5088911;28;20327;-69
2023/06/26 03:35:11;;;;;;;11.93;8.60;;;;;;;24.39;41.34;97351.38;5089748;28;20296;-69
2023/06/26 03:37:37;;;;;;;9.40;7.70;;;;;;;24.33;41.68;97341.59;5088601;28;20196;-68
2023/06/26 03:40:04;;;;;;;8.87;8.00;;;;;;;24.34;41.29;97345.09;5090332;28;20272;-68
2023/06/26 03:42:30;;;;;;;8.80;7.47;;;;;;;24.32;41.45;97353.34;5095217;28;20257;-69
2023/06/26 03:44:55;;;;;;;9.10;7.53;;;;;;;24.35;41.69;97350.19;5096895;28;20450;-69
2023/06/26 03:47:21;;;;;;;8.30;7.40;;;;;;;24.37;41.72;97345.44;5089102;28;20685;-71
2023/06/26 03:49:46;;;;;;;8.23;7.37;;;;;;;24.36;41.69;97354.50;5096719;28;20776;-70
2023/06/26 03:52:12;;;;;;;7.70;6.90;;;;;;;24.35;41.63;97352.09;5089169;28;20250;-70
2023/06/26 03:54:37;;;;;;;8.20;7.40;;;;;;;24.33;41.47;97352.31;5088902;28;20206;-70
2023/06/26 03:57:02;;;;;;;8.73;7.33;;;;;;;24.35;41.38;97357.44;5090558;28;20308;-69
2023/06/26 03:59:28;;;;;;;8.10;7.30;;;;;;;24.38;41.46;97357.78;5098373;28;20172;-70
2023/06/26 04:01:53;;;;;;;8.00;7.20;;;;;;;24.42;41.89;97351.94;5087908;28;20181;-70
2023/06/26 04:04:19;;;;;;;8.50;7.70;;;;;;;24.41;41.53;97351.13;5092599;28;20297;-69
2023/06/26 04:06:44;;;;;;;8.83;8.03;;;;;;;24.43;41.84;97353.56;5094677;28;20185;-69
2023/06/26 04:09:10;;;;;;;9.83;7.57;;;;;;;24.42;41.53;97351.94;5088771;28;20558;-69
2023/06/26 04:11:35;;;;;;;8.20;7.10;;;;;;;24.42;41.69;97351.94;5083432;28;20296;-68
2023/06/26 04:14:00;;;;;;;7.70;7.00;;;;;;;24.41;42.42;97363.72;5083142;28;20229;-70
2023/06/26 04:16:26;;;;;;;8.57;7.67;;;;;;;24.45;42.50;97356.81;5095941;28;20705;-69
2023/06/26 04:18:52;;;;;;;8.13;6.77;;;;;;;24.46;42.19;97351.22;5090034;28;20227;-69
2023/06/26 04:21:18;;;;;;;7.87;7.10;;;;;;;24.50;42.34;97351.56;5091610;28;20846;-69
2023/06/26 04:23:44;;;;;;;8.30;7.50;;;;;;;24.56;42.17;97355.97;5089478;28;20426;-70
2023/06/26 04:26:13;;;;;;;8.30;7.50;;;;;;;24.63;42.46;97356.63;5095770;28;20657;-70
2023/06/26 04:28:38;;;;;;;8.50;7.47;;;;;;;24.63;42.61;97359.31;5090501;28;20182;-70
2023/06/26 04:31:04;;;;;;;12.30;6.60;;;;;;;24.64;42.92;97358.25;5089024;28;20474;-70
2023/06/26 04:33:29;;;;;;;8.17;7.37;;;;;;;24.61;42.71;97361.41;5100356;28;20188;-70
2023/06/26 04:35:55;;;;;;;8.63;7.80;;;;;;;24.63;43.02;97361.19;5089048;28;20653;-69
2023/06/26 04:38:21;;;;;;;10.20;7.90;;;;;;;24.63;43.16;97351.28;5090223;28;20245;-69
2023/06/26 04:40:47;;;;;;;8.43;7.67;;;;;;;24.68;42.80;97348.69;5090991;28;20186;-70
2023/06/26 04:43:13;;;;;;;8.70;7.20;;;;;;;24.75;42.97;97350.44;5103543;28;20411;-69
2023/06/26 04:45:38;;;;;;;8.50;7.60;;;;;;;24.77;42.75;97349.13;5094853;28;20443;-70
2023/06/26 04:48:05;;;;;;;7.77;7.03;;;;;;;24.83;42.67;97352.72;5093087;28;20284;-69
2023/06/26 04:50:33;;;;;;;10.10;8.63;;;;;;;24.87;42.81;97355.75;5088610;28;20185;-69
2023/06/26 04:52:58;;;;;;;8.70;7.83;;;;;;;24.93;43.16;97350.25;5094479;28;20416;-70
2023/06/26 04:55:24;;;;;;;12.20;8.10;;;;;;;24.97;43.05;97343.31;5088920;28;20439;-70
2023/06/26 04:57:50;;;;;;;8.90;8.00;;;;;;;25.05;42.57;97344.00;5087437;28;20191;-69
2023/06/26 05:00:16;;;;;;;8.00;7.20;;;;;;;25.08;42.79;97348.84;5101275;28;20227;-69
2023/06/26 05:02:41;;;;;;;11.30;7.43;;;;;;;25.14;42.56;97345.22;5104089;28;20411;-69
2023/06/26 05:05:07;;;;;;;9.17;7.63;;;;;;;25.19;42.49;97344.47;5098531;28;20672;-69
2023/06/26 05:07:32;;;;;;;9.60;7.40;;;;;;;25.26;42.21;97345.94;5076339;28;20623;-69
2023/06/26 05:09:58;;;;;;;9.57;8.20;;;;;;;25.32;42.18;97343.34;5095345;28;20178;-69
2023/06/26 05:12:23;;;;;;;11.60;8.23;;;;;;;25.38;42.28;97342.34;5080495;28;20300;-70
2023/06/26 05:14:49;;;;;;;8.70;7.10;;;;;;;25.43;41.77;97334.44;5083442;28;20206;-69
2023/06/26 05:17:14;;;;;;;8.30;7.40;;;;;;;25.51;41.94;97334.00;5098046;28;20179;-70
2023/06/26 05:19:40;;;;;;;8.20;7.40;;;;;;;25.58;41.64;97342.69;5092178;28;20246;-70
2023/06/26 05:22:09;;;;;;;9.43;7.60;;;;;;;25.68;41.32;97339.34;5091155;28;20201;-71
2023/06/26 05:24:35;;;;;;;10.90;7.30;;;;;;;25.77;41.10;97340.53;5100182;28;20547;-69
2023/06/26 05:27:01;;;;;;;9.03;7.10;;;;;;;25.88;40.81;97348.75;5091547;28;20845;-69
2023/06/26 05:29:27;;;;;;;8.67;7.77;;;;;;;25.99;40.64;97344.31;5082946;28;20884;-70
2023/06/26 05:31:53;;;;;;;8.80;7.90;;;;;;;26.09;40.46;97341.75;5079122;28;20483;-70
2023/06/26 05:34:19;;;;;;;11.80;9.33;;;;;;;26.19;40.12;97341.94;5095731;28;20196;-70
2023/06/26 05:36:47;;;;;;;10.77;8.07;;;;;;;26.32;39.79;97342.63;5082544;28;20859;-71
2023/06/26 05:39:12;;;;;;;11.60;7.70;;;;;;;26.42;39.53;97349.94;5069662;28;20420;-71
2023/06/26 05:41:38;;;;;;;8.70;7.57;;;;;;;26.52;38.99;97348.19;5094108;28;20456;-70
2023/06/26 05:44:03;;;;;;;7.63;6.93;;;;;;;26.64;38.39;97347.25;5093392;28;20206;-70
2023/06/26 05:46:29;;;;;;;7.27;6.40;;;;;;;26.73;37.52;97351.09;5087654;28;20178;-71
2023/06/26 05:48:54;;;;;;;7.90;7.10;;;;;;;26.85;37.39;97336.72;5087330;28;20192;-70
2023/06/26 05:51:20;;;;;;;7.10;6.40;;;;;;;26.96;36.73;97349.22;5069296;28;20251;-69
2023/06/26 05:53:45;;;;;;;8.90;7.03;;;;;;;27.05;36.08;97353.03;5087973;28;20629;-71
2023/06/26 05:56:11;;;;;;;7.77;6.97;;;;;;;27.18;35.90;97343.72;5097610;28;20685;-69
2023/06/26 05:58:37;;;;;;;6.80;6.10;;;;;;;27.31;35.64;97339.81;5087792;28;20173;-69
2023/06/26 06:01:02;;;;;;;9.60;6.80;;;;;;;27.42;35.61;97341.50;5087530;28;20268;-70
2023/06/26 06:03:28;;;;;;;7.33;6.37;;;;;;;27.52;35.30;97346.19;5087706;28;20210;-70
2023/06/26 06:05:53;;;;;;;9.93;6.93;;;;;;;27.65;35.01;97341.41;5086884;28;20233;-69
2023/06/26 06:08:19;;;;;;;7.47;6.77;;;;;;;27.77;34.92;97346.59;5087871;28;20181;-69
2023/06/26 06:10:44;;;;;;;7.07;6.37;;;;;;;27.90;34.63;97346.13;5085733;28;20216;-71
2023/06/26 06:13:09;;;;;;;6.47;5.87;;;;;;;28.02;34.43;97337.84;5069095;28;20189;-69
2023/06/26 06:15:35;;;;;;;7.40;6.13;;;;;;;28.14;34.25;97337.63;5094387;28;20296;-69
2023/06/26 06:18:00;;;;;;;7.00;6.30;;;;;;;28.26;33.74;97345.50;5082041;28;20268;-70
2023/06/26 06:20:26;;;;;;;8.53;6.23;;;;;;;28.38;33.41;97342.56;5094441;28;20670;-70
2023/06/26 06:22:51;;;;;;;6.73;5.80;;;;;;;28.27;33.80;97350.63;5099038;28;20193;-72
2023/06/26 06:25:17;;;;;;;6.67;6.07;;;;;;;28.53;33.35;97353.41;5094729;28;20288;-70
2023/06/26 06:27:43;;;;;;;7.00;5.90;;;;;;;28.69;33.23;97350.75;5098024;28;20177;-68
2023/06/26 06:30:09;;;;;;;7.23;6.23;;;;;;;28.74;33.01;97345.38;5089814;28;20250;-69
2023/06/26 06:32:34;;;;;;;7.20;5.70;;;;;;;28.87;32.82;97347.56;5091437;28;20455;-69
2023/06/26 06:35:03;;;;;;;6.53;5.93;;;;;;;29.02;32.45;97348.66;5090654;28;20435;-70
2023/06/26 06:37:31;;;;;;;6.17;5.57;;;;;;;29.15;32.60;97347.31;5095019;28;20179;-68
2023/06/26 06:39:56;;;;;;;12.33;5.97;;;;;;;29.27;32.41;97353.25;5086419;28;20472;-70
2023/06/26 06:42:22;;;;;;;9.23;6.00;;;;;;;29.38;31.91;97349.50;5093370;28;20503;-71
2023/06/26 06:44:48;;;;;;;6.53;5.63;;;;;;;29.53;32.75;97347.88;5091110;28;20229;-70
2023/06/26 06:47:14;;;;;;;9.97;6.00;;;;;;;29.67;32.46;97345.41;5090115;28;20838;-70
2023/06/26 06:49:39;;;;;;;7.13;6.07;;;;;;;29.81;31.89;97349.16;5093173;28;20466;-70
2023/06/26 06:52:05;;;;;;;6.73;6.13;;;;;;;29.96;32.05;97350.22;5089812;28;20285;-70
2023/06/26 06:54:30;;;;;;;6.73;5.77;;;;;;;30.09;31.39;97355.03;5090430;28;20255;-71
2023/06/26 06:56:56;;;;;;;6.43;5.83;;;;;;;30.20;31.03;97350.38;5089971;28;20185;-69
2023/06/26 06:59:21;;;;;;;5.80;5.30;;;;;;;30.30;30.46;97352.25;5092515;28;20204;-69
2023/06/26 07:01:46;;;;;;;5.73;5.23;;;;;;;30.29;30.46;97361.44;5090467;28;20268;-70
2023/06/26 07:04:12;;;;;;;7.40;5.53;;;;;;;30.39;30.82;97352.47;5089888;28;20676;-69
2023/06/26 07:06:37;;;;;;;5.80;5.30;;;;;;;30.54;30.70;97348.91;5089852;28;20196;-70
2023/06/26 07:09:03;;;;;;;6.40;5.80;;;;;;;30.62;30.29;97349.13;5090950;28;20260;-68
2023/06/26 07:11:28;;;;;;;5.50;5.00;;;;;;;30.73;30.44;97349.91;5096026;28;20304;-69
2023/06/26 07:13:55;;;;;;;6.20;5.60;;;;;;;30.87;30.45;97350.06;5093233;28;20192;-69
2023/06/26 07:16:20;;;;;;;5.70;5.10;;;;;;;30.94;30.39;97341.63;5090204;28;20312;-69
2023/06/26 07:18:46;;;;;;;5.90;5.40;;;;;;;31.09;30.96;97343.41;5095730;28;20941;-70
2023/06/26 07:21:11;;;;;;;9.07;6.10;;;;;;;31.22;30.47;97348.19;5091030;28;20597;-70
2023/06/26 07:23:37;;;;;;;9.00;5.03;;;;;;;31.34;30.04;97344.31;5094366;28;20189;-68
2023/06/26 07:26:02;;;;;;;5.87;5.37;;;;;;;31.46;29.83;97352.06;5096386;28;20197;-69
2023/06/26 07:28:27;;;;;;;13.83;6.13;;;;;;;31.59;29.85;97345.97;5092266;28;20192;-69
2023/06/26 07:30:53;;;;;;;5.47;5.00;;;;;;;31.67;29.71;97339.94;5097579;28;20235;-69
2023/06/26 07:33:18;;;;;;;6.20;5.60;;;;;;;31.79;30.04;97352.28;5089597;28;20264;-70
2023/06/26 07:35:44;;;;;;;7.87;6.40;;;;;;;31.89;29.78;97349.47;5096906;28;20287;-68
2023/06/26 07:38:09;;;;;;;13.23;7.57;;;;;;;31.99;29.46;97348.56;5089401;28;20186;-69
2023/06/26 07:40:35;;;;;;;6.70;6.00;;;;;;;32.10;29.17;97341.13;5092657;28;20282;-70
2023/06/26 07:43:00;;;;;;;5.77;5.27;;;;;;;32.13;28.99;97348.69;5096258;28;20260;-70
2023/06/26 07:45:26;;;;;;;6.07;5.47;;;;;;;32.24;29.22;97350.16;5093515;28;20201;-70
2023/06/26 07:47:51;;;;;;;5.53;5.07;;;;;;;32.35;28.72;97345.41;5089219;28;20709;-71
2023/06/26 07:50:21;;;;;;;6.43;5.13;;;;;;;32.47;28.70;97345.81;5089142;28;20672;-70
2023/06/26 07:52:46;;;;;;;5.70;5.20;;;;;;;32.62;28.63;97350.22;5089931;28;20208;-70
2023/06/26 07:55:12;;;;;;;14.03;5.43;;;;;;;32.78;28.49;97349.97;5091373;28;20535;-71
2023/06/26 07:57:37;;;;;;;6.30;5.70;;;;;;;32.95;28.24;97359.53;5090577;28;20268;-70
2023/06/26 08:00:06;;;;;;;8.90;4.37;;;;;;;33.07;27.59;97355.28;5088936;28;20276;-70
2023/06/26 08:02:32;;;;;;;5.40;4.90;;;;;;;33.19;26.95;97349.38;5089202;28;20219;-69
2023/06/26 08:04:57;;;;;;;4.60;4.30;;;;;;;33.33;27.02;97346.69;5088687;28;20987;-70
2023/06/26 08:07:22;;;;;;;5.20;4.80;;;;;;;33.43;26.28;97345.75;5084798;28;20272;-69
2023/06/26 08:09:48;;;;;;;7.30;5.87;;;;;;;33.58;26.48;97339.25;5091369;28;20597;-70
2023/06/26 08:12:13;;;;;;;5.67;4.40;;;;;;;33.67;25.71;97342.06;5094429;28;20201;-71
2023/06/26 08:14:39;;;;;;;5.03;4.47;;;;;;;33.73;25.64;97335.44;5088007;28;20292;-71
2023/06/26 08:17:04;;;;;;;5.07;4.57;;;;;;;33.82;25.68;97333.63;5094462;28;20273;-70
2023/06/26 08:19:30;;;;;;;5.20;4.07;;;;;;;33.91;25.71;97332.94;5087882;28;20264;-70
2023/06/26 08:21:55;;;;;;;6.10;5.50;;;;;;;34.02;25.66;97337.09;5095614;28;20201;-70
2023/06/26 08:24:21;;;;;;;5.43;4.93;;;;;;;34.15;25.47;97330.81;5093476;28;20616;-70
2023/06/26 08:26:46;;;;;;;8.53;4.83;;;;;;;34.27;25.61;97332.22;5093495;28;20182;-70
2023/06/26 08:29:12;;;;;;;5.30;4.80;;;;;;;34.35;25.48;97331.50;5087653;28;20188;-70
2023/06/26 08:31:38;;;;;;;6.07;4.60;;;;;;;34.44;25.33;97329.69;5088509;28;20213;-70
2023/06/26 08:34:05;;;;;;;4.77;4.37;;;;;;;34.59;25.38;97325.03;5088236;28;20188;-70
2023/06/26 08:36:30;;;;;;;5.23;4.23;;;;;;;34.71;25.31;97330.72;5092321;28;20762;-70
2023/06/26 08:38:56;;;;;;;4.40;4.10;;;;;;;34.85;25.31;97332.59;5089462;28;20438;-68
2023/06/26 08:41:22;;;;;;;4.97;4.57;;;;;;;34.97;24.77;97324.69;5092847;28;20181;-70
2023/06/26 08:43:48;;;;;;;4.80;4.50;;;;;;;35.09;24.30;97331.50;5094293;28;20268;-69
2023/06/26 08:46:14;;;;;;;5.17;4.77;;;;;;;35.19;24.08;97326.63;5069662;28;20200;-70
2023/06/26 08:48:42;;;;;;;4.60;4.20;;;;;;;35.29;23.60;97333.69;5088569;28;20598;-69
2023/06/26 08:51:13;;;;;;;4.77;4.07;;;;;;;35.39;23.54;97331.84;5070646;28;20470;-70
2023/06/26 08:54:00;;;;;;;4.57;4.17;;;;;;;35.46;23.42;97335.78;5100358;28;20510;-68
2023/06/26 08:56:36;;;;;;;10.93;4.70;;;;;;;35.51;23.17;97329.38;5088439;28;20808;-69
2023/06/26 08:59:01;;;;;;;4.60;4.30;;;;;;;35.59;23.03;97333.28;5070300;28;20517;-69
2023/06/26 09:01:27;;;;;;;7.03;5.40;;;;;;;35.65;22.74;97327.38;5092958;28;20411;-70
2023/06/26 09:03:53;;;;;;;5.70;4.83;;;;;;;35.71;23.09;97330.75;5070514;28;20220;-70
2023/06/26 09:06:18;;;;;;;6.00;5.40;;;;;;;35.84;23.03;97334.47;5087432;28;20423;-69
2023/06/26 09:08:44;;;;;;;6.40;5.50;;;;;;;35.95;23.28;97330.38;5088364;28;20224;-69
2023/06/26 09:11:09;;;;;;;6.83;4.50;;;;;;;35.94;22.76;97330.69;5089573;28;20215;-69
2023/06/26 09:13:35;;;;;;;5.13;4.63;;;;;;;35.89;22.49;97331.63;5088050;28;20743;-70
2023/06/26 09:16:06;;;;;;;4.50;4.10;;;;;;;35.90;22.68;97333.22;5053056;28;20200;-70
2023/06/26 09:18:32;;;;;;;4.67;4.23;;;;;;;35.95;22.52;97324.91;5083272;28;20177;-71
2023/06/26 09:20:58;;;;;;;6.60;5.87;;;;;;;36.07;22.29;97324.31;5088444;28;20426;-70
2023/06/26 09:23:23;;;;;;;4.93;4.43;;;;;;;36.05;22.25;97323.00;5087647;28;20419;-70
2023/06/26 09:25:51;;;;;;;5.10;4.40;;;;;;;36.25;21.97;97330.63;5094944;28;20614;-70
2023/06/26 09:28:16;;;;;;;4.87;4.50;;;;;;;36.38;21.74;97325.34;5059413;28;20191;-71
2023/06/26 09:30:42;;;;;;;5.27;4.87;;;;;;;36.50;21.51;97320.09;5087540;28;20427;-70
2023/06/26 09:33:18;;;;;;;6.47;5.17;;;;;;;36.68;21.44;97317.34;5087968;28;20606;-71
2023/06/26 09:35:45;;;;;;;5.50;4.60;;;;;;;36.87;21.24;97317.81;5087708;28;20291;-70
2023/06/26 09:38:11;;;;;;;5.50;5.00;;;;;;;37.05;21.44;97320.56;5088704;28;20411;-69
2023/06/26 09:40:38;;;;;;;7.10;4.63;;;;;;;37.13;21.12;97325.22;5098140;28;20563;-70
2023/06/26 09:43:05;;;;;;;6.63;5.10;;;;;;;36.89;21.12;97329.22;5087791;28;20433;-70
2023/06/26 09:45:32;;;;;;;6.67;4.33;;;;;;;36.76;21.24;97308.38;5088165;28;20221;-70
2023/06/26 09:48:02;;;;;;;9.00;6.27;;;;;;;36.94;21.88;97313.81;5097634;28;20422;-70
2023/06/26 09:50:28;;;;;;;5.60;5.00;;;;;;;36.82;21.22;97311.72;5091325;28;20411;-71
2023/06/26 09:52:55;;;;;;;5.40;4.50;;;;;;;36.71;21.90;97319.44;5091690;28;20453;-71
2023/06/26 09:55:23;;;;;;;8.87;4.60;;;;;;;36.69;21.59;97314.31;5091474;28;20439;-70
2023/06/26 09:57:51;;;;;;;6.57;5.00;;;;;;;36.76;21.40;97307.56;5097581;28;20928;-70
2023/06/26 10:00:17;;;;;;;5.60;5.10;;;;;;;36.62;22.04;97310.44;5092260;28;20908;-69
2023/06/26 10:02:44;;;;;;;5.03;4.67;;;;;;;36.67;22.32;97310.31;5091974;28;20506;-70
2023/06/26 10:05:09;;;;;;;7.63;4.60;;;;;;;36.86;21.88;97313.50;5097384;28;20450;-70
2023/06/26 10:07:35;;;;;;;5.20;4.73;;;;;;;36.94;21.67;97320.09;5091188;28;20928;-71
2023/06/26 10:10:02;;;;;;;5.43;4.87;;;;;;;37.06;21.61;97316.69;5091222;28;20657;-70
2023/06/26 10:12:30;;;;;;;6.80;4.77;;;;;;;37.04;21.81;97319.75;5098842;28;20455;-70
2023/06/26 10:15:00;;;;;;;5.63;4.63;;;;;;;36.91;21.38;97317.97;5093391;28;21006;-70
2023/06/26 10:17:29;;;;;;;5.33;4.80;;;;;;;36.86;21.48;97321.69;5090215;28;20465;-70
2023/06/26 10:19:56;;;;;;;11.00;5.13;;;;;;;36.64;21.98;97316.41;5097062;28;20942;-71
2023/06/26 10:22:24;;;;;;;5.87;4.57;;;;;;;36.46;22.24;97319.09;5091850;28;20462;-72
2023/06/26 10:24:50;;;;;;;5.07;4.67;;;;;;;36.29;22.10;97323.38;5081427;28;20430;-70
2023/06/26 10:27:17;;;;;;;8.57;4.90;;;;;;;36.06;22.76;97327.34;5077489;28;20434;-70
2023/06/26 10:29:47;;;;;;;5.90;5.40;;;;;;;35.83;23.43;97328.25;5066408;28;20415;-69
2023/06/26 10:32:13;;;;;;;5.40;4.90;;;;;;;35.60;23.71;97334.88;5073946;28;20550;-71
2023/06/26 10:34:39;;;;;;;5.53;5.13;;;;;;;35.34;24.60;97339.03;5076537;28;20442;-71
2023/06/26 10:37:04;;;;;;;8.20;5.53;;;;;;;35.11;25.85;97348.34;5073111;28;20456;-71
2023/06/26 10:39:49;;;;;;;9.90;5.40;;;;;;;34.83;26.29;97346.50;5082237;28;20192;-71
2023/06/26 10:42:19;;;;;;;7.33;5.50;;;;;;;34.68;26.23;97352.31;5090683;28;20184;-71
2023/06/26 10:44:46;;;;;;;13.70;5.63;;;;;;;34.65;26.85;97350.19;5096386;28;20470;-71
2023/06/26 10:47:13;;;;;;;8.10;6.10;;;;;;;34.75;26.62;97364.38;5093220;28;20475;-70
2023/06/26 10:49:42;;;;;;;7.93;6.43;;;;;;;34.99;26.61;97346.97;5080136;28;20438;-71
2023/06/26 10:52:07;;;;;;;8.20;6.30;;;;;;;35.22;26.03;97357.84;5095681;28;20822;-71
2023/06/26 10:54:33;;;;;;;11.23;6.20;;;;;;;35.54;26.12;97352.47;5090831;28;20431;-71
2023/06/26 10:56:59;;;;;;;14.63;5.87;;;;;;;35.73;25.85;97353.03;5092865;28;20169;-70
2023/06/26 10:59:26;;;;;;;7.63;5.67;;;;;;;35.84;25.02;97348.09;5097849;28;20180;-71
2023/06/26 11:02:01;;;;;;;11.63;6.60;;;;;;;36.08;25.08;97349.66;5080013;28;20235;-72
2023/06/26 11:04:43;;;;;;;8.97;6.63;;;;;;;36.18;25.20;97345.84;5092986;28;20534;-71
2023/06/26 11:07:21;;;;;;;6.30;5.80;;;;;;;36.41;25.01;97335.63;5090427;28;20415;-70
2023/06/26 11:10:00;;;;;;;5.80;5.13;;;;;;;36.58;24.43;97346.56;5098797;28;20430;-70
2023/06/26 11:12:42;;;;;;;10.73;5.50;;;;;;;36.81;24.31;97343.66;5093411;28;20451;-72
2023/06/26 11:15:12;;;;;;;6.40;5.80;;;;;;;36.96;23.83;97349.78;5092107;28;20485;-70
2023/06/26 11:17:38;;;;;;;6.60;5.50;;;;;;;36.92;23.95;97354.31;5083033;28;20424;-71
2023/06/26 11:20:09;;;;;;;7.30;6.03;;;;;;;36.92;23.73;97357.06;5092670;28;20454;-71
2023/06/26 11:22:36;;;;;;;6.17;5.57;;;;;;;36.88;24.12;97349.47;5091811;28;20437;-70
2023/06/26 11:25:03;;;;;;;5.60;5.10;;;;;;;36.98;24.44;97359.28;5078359;28;20550;-70
2023/06/26 11:27:46;;;;;;;5.43;5.03;;;;;;;36.96;24.49;97355.25;5094347;28;20837;-70
2023/06/26 11:30:23;;;;;;;11.93;10.73;;;;;;;37.04;24.36;97362.66;5071674;28;20439;-70